createdAt,value
2019-04-23T00:01:29.897Z,11.30
2019-04-23T00:05:41.415Z,11.20
2019-04-23T00:09:39.328Z,11.10
2019-04-23T00:13:50.248Z,11.10
2019-04-23T00:17:55.783Z,11.00
2019-04-23T00:22:05.465Z,11.00
2019-04-23T00:26:25.650Z,11.00
2019-04-23T00:30:36.471Z,11.00
2019-04-23T00:38:49.927Z,10.80
2019-04-23T00:47:23.536Z,10.70
2019-04-23T00:51:22.403Z,10.50
2019-04-23T00:55:31.275Z,10.40
2019-04-23T00:59:48.245Z,10.30
2019-04-23T01:03:48.346Z,10.20
2019-04-23T01:07:51.501Z,10.00
2019-04-23T01:12:03.896Z,9.90
2019-04-23T01:16:13.147Z,9.90
2019-04-23T01:20:20.988Z,9.90
2019-04-23T01:24:14.113Z,9.80
2019-04-23T01:28:42.456Z,9.70
2019-04-23T01:32:54.659Z,9.70
2019-04-23T01:36:56.460Z,9.70
2019-04-23T01:41:07.718Z,9.60
2019-04-23T01:45:21.799Z,9.50
2019-04-23T01:49:31.453Z,9.50
2019-04-23T01:53:34.605Z,9.50
2019-04-23T02:05:58.884Z,9.40
2019-04-23T02:10:07.159Z,9.30
2019-04-23T02:14:16.298Z,9.20
2019-04-23T02:18:24.408Z,9.10
2019-04-23T02:22:58.717Z,9.00
2019-04-23T02:27:03.215Z,8.90
2019-04-23T02:39:36.802Z,8.80
2019-04-23T02:43:26.409Z,8.80
2019-04-23T02:52:03.487Z,9.10
2019-04-23T02:56:29.118Z,9.10
2019-04-23T03:04:34.852Z,9.20
2019-04-23T03:08:27.253Z,9.20
2019-04-23T03:12:52.605Z,9.20
2019-04-23T03:16:53.991Z,9.10
2019-04-23T03:25:27.240Z,8.90
2019-04-23T03:29:31.735Z,8.90
2019-04-23T03:41:54.839Z,9.00
2019-04-23T03:46:22.082Z,8.90
2019-04-23T04:03:04.681Z,8.70
2019-04-23T04:07:15.331Z,8.90
2019-04-23T04:11:14.631Z,9.20
2019-04-23T04:15:53.316Z,9.40
2019-04-23T04:23:43.187Z,10.10
2019-04-23T04:27:54.468Z,10.60
2019-04-23T04:31:57.156Z,11.20
2019-04-23T04:36:21.877Z,11.60
2019-04-23T04:40:45.817Z,11.90
2019-04-23T04:44:43.516Z,12.40
2019-04-23T04:48:54.872Z,13.20
2019-04-23T04:53:12.574Z,13.80
2019-04-23T04:57:20.436Z,14.30
2019-04-23T05:05:51.565Z,15.00
2019-04-23T05:09:52.085Z,15.40
2019-04-23T05:13:51.555Z,15.90
2019-04-23T05:18:20.655Z,15.90
2019-04-23T05:22:06.950Z,16.00
2019-04-23T05:26:17.387Z,15.90
2019-04-23T05:30:25.106Z,16.80
2019-04-23T05:34:27.349Z,16.80
2019-04-23T05:42:50.046Z,17.80
2019-04-23T05:46:55.842Z,17.80
2019-04-23T05:51:04.521Z,18.20
2019-04-23T05:55:08.818Z,19.10
2019-04-23T05:59:19.555Z,18.50
2019-04-23T06:03:29.379Z,17.90
2019-04-23T06:07:38.929Z,19.40
2019-04-23T06:11:53.654Z,20.50
2019-04-23T06:15:55.875Z,22.60
2019-04-23T06:20:04.318Z,21.20
2019-04-23T06:24:16.812Z,20.20
2019-04-23T06:32:25.837Z,22.00
2019-04-23T06:36:32.633Z,22.70
2019-04-23T06:40:43.482Z,21.80
2019-04-23T06:44:51.698Z,21.90
2019-04-23T06:49:00.719Z,23.10
2019-04-23T06:52:58.864Z,22.70
2019-04-23T06:57:19.190Z,22.70
2019-04-23T07:01:22.145Z,21.20
2019-04-23T07:05:37.673Z,21.20
2019-04-23T07:09:38.885Z,22.40
2019-04-23T07:13:55.826Z,22.40
2019-04-23T07:17:58.760Z,22.40
2019-04-23T07:22:14.721Z,21.50
2019-04-23T07:30:32.875Z,20.50
2019-04-23T07:34:49.411Z,20.60
2019-04-23T07:39:11.753Z,21.10
2019-04-23T07:43:34.331Z,21.10
2019-04-23T07:48:01.425Z,21.60
2019-04-23T07:52:13.234Z,21.90
2019-04-23T07:56:13.124Z,22.30
2019-04-23T08:00:29.713Z,21.80
2019-04-23T08:04:35.268Z,21.60
2019-04-23T08:08:39.331Z,20.60
2019-04-23T08:12:45.173Z,20.80
2019-04-23T08:16:50.327Z,21.30
2019-04-23T08:21:05.559Z,21.50
2019-04-23T08:25:12.565Z,21.60
2019-04-23T08:29:24.987Z,21.80
2019-04-23T08:33:42.257Z,22.90
2019-04-23T08:45:59.550Z,19.00
2019-04-23T08:50:27.688Z,19.50
2019-04-23T08:54:29.805Z,19.90
2019-04-23T08:58:34.295Z,20.40
2019-04-23T09:02:47.804Z,20.30
2019-04-23T09:06:50.192Z,20.60
2019-04-23T09:10:55.802Z,20.90
2019-04-23T09:15:01.869Z,23.10
2019-04-23T09:23:11.590Z,20.60
2019-04-23T09:27:31.667Z,20.40
2019-04-23T09:32:05.677Z,22.50
2019-04-23T09:36:06.539Z,24.00
2019-04-23T09:40:51.555Z,23.40
2019-04-23T09:44:57.049Z,23.40
2019-04-23T09:49:03.376Z,24.20
2019-04-23T09:57:07.315Z,23.60
2019-04-23T10:05:19.522Z,22.90
2019-04-23T10:09:16.147Z,23.40
2019-04-23T10:13:22.062Z,23.50
2019-04-23T10:17:28.935Z,23.10
2019-04-23T10:21:35.391Z,20.50
2019-04-23T10:25:41.723Z,19.50
2019-04-23T10:29:49.936Z,19.90
2019-04-23T10:33:57.945Z,20.00
2019-04-23T10:38:10.131Z,20.60
2019-04-23T10:42:14.203Z,21.00
2019-04-23T10:46:48.922Z,21.40
2019-04-23T10:51:04.570Z,22.30
2019-04-23T10:55:11.988Z,21.90
2019-04-23T11:04:02.474Z,19.10
2019-04-23T11:07:42.048Z,18.50
2019-04-23T11:12:12.333Z,18.20
2019-04-23T11:16:40.420Z,18.00
2019-04-23T11:24:36.020Z,17.30
2019-04-23T11:32:56.984Z,17.70
2019-04-23T11:41:07.256Z,18.30
2019-04-23T11:45:18.501Z,19.10
2019-04-23T11:49:34.867Z,19.00
2019-04-23T11:53:32.045Z,18.40
2019-04-23T11:57:41.235Z,18.50
2019-04-23T12:02:00.812Z,18.60
2019-04-23T12:06:25.043Z,18.00
2019-04-23T12:19:40.943Z,17.50
2019-04-23T12:23:43.628Z,17.40
2019-04-23T12:27:27.497Z,17.40
2019-04-23T12:31:47.581Z,17.30
2019-04-23T12:35:39.019Z,17.40
2019-04-23T12:40:00.590Z,17.30
2019-04-23T12:44:00.930Z,17.30
2019-04-23T12:52:18.172Z,17.30
2019-04-23T12:56:31.807Z,17.50
2019-04-23T13:04:48.885Z,17.90
2019-04-23T13:08:54.486Z,17.70
2019-04-23T13:13:10.790Z,17.60
2019-04-23T13:17:27.353Z,17.60
2019-04-23T13:21:41.393Z,17.70
2019-04-23T13:25:37.584Z,17.60
2019-04-23T13:29:43.514Z,17.50
2019-04-23T13:42:05.174Z,17.80
2019-04-23T13:46:13.775Z,17.60
2019-04-23T13:50:30.927Z,17.60
2019-04-23T13:54:46.486Z,17.80
2019-04-23T13:58:38.558Z,17.60
2019-04-23T14:06:53.921Z,17.40
2019-04-23T14:10:53.250Z,17.60
2019-04-23T14:15:12.516Z,17.60
2019-04-23T14:19:06.781Z,17.50
2019-04-23T14:23:41.239Z,17.40
2019-04-23T14:27:39.919Z,17.40
2019-04-23T14:31:43.400Z,17.30
2019-04-23T14:35:54.477Z,17.10
2019-04-23T14:40:21.686Z,17.20
2019-04-23T14:44:36.671Z,17.00
2019-04-23T14:48:51.640Z,16.90
2019-04-23T14:53:06.582Z,16.90
2019-04-23T14:57:07.950Z,16.90
2019-04-23T15:05:24.053Z,17.10
2019-04-23T15:09:33.880Z,17.00
2019-04-23T15:17:49.330Z,16.60
2019-04-23T15:26:50.931Z,16.30
2019-04-23T15:27:15.786Z,16.50
2019-04-23T15:30:03.721Z,16.00
2019-04-23T15:34:20.933Z,15.90
2019-04-23T15:42:41.236Z,16.00
2019-04-23T15:46:47.096Z,16.10
2019-04-23T15:51:04.444Z,15.90
2019-04-23T15:55:02.018Z,15.70
2019-04-23T15:59:25.934Z,15.60
2019-04-23T16:02:52.092Z,15.40
2019-04-23T16:07:08.477Z,15.40
2019-04-23T16:11:45.396Z,15.30
2019-04-23T16:16:02.585Z,15.40
2019-04-23T16:24:13.613Z,15.20
2019-04-23T16:28:18.882Z,15.00
2019-04-23T16:32:37.593Z,15.10
2019-04-23T16:36:48.268Z,14.90
2019-04-23T16:40:47.657Z,14.70
2019-04-23T16:49:20.031Z,14.40
2019-04-23T16:53:21.203Z,14.40
2019-04-23T16:57:39.000Z,14.50
2019-04-23T17:01:24.902Z,14.50
2019-04-23T17:10:03.224Z,14.30
2019-04-23T17:14:04.553Z,14.10
2019-04-23T17:18:11.631Z,13.90
2019-04-23T17:22:11.575Z,13.70
2019-04-23T17:26:26.299Z,13.60
2019-04-23T17:30:32.484Z,13.50
2019-04-23T17:39:06.382Z,13.30
2019-04-23T17:43:06.433Z,13.10
2019-04-23T17:47:37.757Z,13.10
2019-04-23T17:52:05.404Z,13.00
2019-04-23T18:00:23.153Z,12.90
2019-04-23T18:08:19.427Z,12.70
2019-04-23T18:21:03.309Z,12.40
2019-04-23T18:25:11.103Z,12.40
2019-04-23T18:34:05.306Z,12.30
2019-04-23T18:37:58.498Z,12.10
2019-04-23T18:42:22.375Z,12.10
2019-04-23T18:50:46.851Z,12.00
2019-04-23T18:54:34.725Z,12.00
2019-04-23T19:03:01.350Z,11.80
2019-04-23T19:07:42.531Z,11.80
2019-04-23T19:15:53.011Z,11.70
2019-04-23T19:20:18.023Z,11.60
2019-04-23T19:24:23.847Z,11.60
2019-04-23T19:32:39.090Z,11.60
2019-04-23T19:40:55.257Z,11.50
2019-04-23T19:44:54.399Z,11.50
2019-04-23T19:53:25.300Z,11.50
2019-04-23T19:57:22.339Z,11.50
2019-04-23T20:01:29.039Z,11.50
2019-04-23T20:05:41.873Z,11.40
2019-04-23T20:18:01.067Z,11.30
2019-04-23T20:22:16.367Z,11.20
2019-04-23T20:30:41.322Z,11.20
2019-04-23T20:34:51.864Z,11.10
2019-04-23T20:38:57.436Z,11.10
2019-04-23T20:42:53.031Z,11.00
2019-04-23T20:51:16.763Z,10.80
2019-04-23T20:55:29.332Z,10.80
2019-04-23T20:59:35.914Z,10.80
2019-04-23T21:12:05.059Z,10.80
2019-04-23T21:24:42.898Z,10.70
2019-04-23T21:28:48.256Z,10.60
2019-04-23T21:33:04.885Z,10.60
2019-04-23T21:37:06.282Z,10.60
2019-04-23T21:41:32.964Z,10.60
2019-04-23T21:45:30.475Z,10.60
2019-04-23T21:49:50.711Z,10.60
2019-04-23T21:53:46.027Z,10.60
2019-04-23T22:02:38.290Z,10.50
2019-04-23T22:06:41.302Z,10.50
2019-04-23T22:10:47.856Z,10.50
2019-04-23T22:14:47.494Z,10.50
2019-04-23T22:19:04.227Z,10.40
2019-04-23T22:27:08.608Z,10.50
2019-04-23T22:31:18.744Z,10.50
2019-04-23T22:35:24.405Z,10.50
2019-04-23T22:39:40.076Z,10.60
2019-04-23T22:43:57.721Z,10.50
2019-04-23T22:47:58.445Z,10.50
2019-04-23T22:56:10.715Z,10.50
2019-04-23T23:04:31.238Z,10.50
2019-04-23T23:08:40.839Z,10.40
2019-04-23T23:12:52.783Z,10.40
2019-04-23T23:16:50.351Z,10.40
2019-04-23T23:21:05.530Z,10.50
2019-04-23T23:25:15.193Z,10.50
2019-04-23T23:29:15.465Z,10.50
2019-04-23T23:33:23.288Z,10.50
2019-04-23T23:37:39.632Z,10.50
2019-04-23T23:50:15.941Z,10.50
2019-04-23T23:54:21.467Z,10.50
2019-04-23T23:58:40.658Z,10.50
